createdAt,value
2023-05-06T00:04:33.410Z,11.55
2023-05-06T00:09:29.927Z,11.34
2023-05-06T00:14:26.970Z,11.2
2023-05-06T00:20:37.066Z,11.06
2023-05-06T00:25:33.649Z,10.99
2023-05-06T00:30:30.228Z,11.2
2023-05-06T00:35:26.661Z,11.34
2023-05-06T00:41:37.296Z,11.41
2023-05-06T00:46:33.869Z,11.34
2023-05-06T00:51:30.441Z,11.34
2023-05-06T00:56:27.025Z,11.2
2023-05-06T01:02:46.179Z,10.92
2023-05-06T01:07:34.148Z,10.99
2023-05-06T01:12:30.807Z,11.13
2023-05-06T01:17:27.248Z,10.99
2023-05-06T01:23:37.940Z,10.99
2023-05-06T01:28:34.417Z,10.92
2023-05-06T01:33:31.016Z,10.85
2023-05-06T01:38:27.510Z,10.85
2023-05-06T01:44:38.206Z,10.85
2023-05-06T01:49:34.682Z,10.79
2023-05-06T01:54:31.187Z,10.72
2023-05-06T01:59:29.525Z,10.65
2023-05-06T02:05:38.424Z,10.65
2023-05-06T02:10:34.966Z,10.52
2023-05-06T02:15:31.504Z,10.59
2023-05-06T02:20:28.053Z,10.65
2023-05-06T02:26:38.777Z,10.59
2023-05-06T02:31:35.314Z,10.52
2023-05-06T02:36:31.806Z,10.52
2023-05-06T02:47:39.031Z,10.52
2023-05-06T02:52:35.464Z,10.72
2023-05-06T02:57:32.088Z,10.65
2023-05-06T03:02:28.797Z,10.65
2023-05-06T03:08:39.224Z,10.52
2023-05-06T03:13:35.795Z,10.39
2023-05-06T03:18:32.327Z,10.39
2023-05-06T03:23:28.906Z,10.2
2023-05-06T03:29:39.582Z,10.2
2023-05-06T03:34:36.020Z,10.13
2023-05-06T03:39:32.545Z,10.26
2023-05-06T03:44:29.366Z,10.26
2023-05-06T03:50:39.769Z,10.2
2023-05-06T03:55:36.294Z,10.26
2023-05-06T04:00:32.926Z,10.32
2023-05-06T04:05:29.379Z,10.32
2023-05-06T04:11:40.050Z,10.2
2023-05-06T04:16:36.655Z,10.26
2023-05-06T04:21:33.137Z,10.2
2023-05-06T04:26:29.732Z,10.26
2023-05-06T04:32:40.372Z,10.2
2023-05-06T04:36:30.929Z,10.2
2023-05-06T04:47:38.164Z,10.39
2023-05-06T04:52:34.580Z,10.52
2023-05-06T04:57:31.089Z,10.59
2023-05-06T05:02:27.736Z,10.52
2023-05-06T05:08:38.347Z,10.59
2023-05-06T05:13:34.860Z,10.65
2023-05-06T05:18:31.396Z,10.59
2023-05-06T05:23:28.013Z,10.72
2023-05-06T05:29:38.591Z,10.79
2023-05-06T05:34:35.118Z,10.79
2023-05-06T05:39:31.601Z,10.85
2023-05-06T05:44:28.172Z,10.92
2023-05-06T05:50:38.867Z,11.2
2023-05-06T05:55:35.393Z,11.2
2023-05-06T06:00:31.942Z,11.2
2023-05-06T06:05:28.491Z,11.27
2023-05-06T06:11:39.268Z,11.34
2023-05-06T06:16:35.774Z,11.55
2023-05-06T06:21:32.183Z,11.77
2023-05-06T06:26:28.772Z,11.91
2023-05-06T06:32:39.421Z,11.99
2023-05-06T06:37:35.993Z,12.13
2023-05-06T06:47:29.098Z,12.36
2023-05-06T06:53:39.676Z,12.44
2023-05-06T06:58:36.162Z,12.59
2023-05-06T07:03:32.733Z,12.59
2023-05-06T07:08:29.269Z,12.74
2023-05-06T07:14:39.977Z,12.9
2023-05-06T07:19:36.540Z,13.22
2023-05-06T07:24:33.000Z,13.38
2023-05-06T07:29:29.571Z,13.54
2023-05-06T07:35:40.232Z,13.71
2023-05-06T07:40:36.767Z,13.79
2023-05-06T07:45:33.336Z,13.71
2023-05-06T07:50:29.759Z,14.21
2023-05-06T07:56:40.495Z,14.38
2023-05-06T08:01:37.054Z,14.65
2023-05-06T08:06:33.526Z,14.73
2023-05-06T08:11:30.068Z,15.09
2023-05-06T08:17:40.826Z,15.18
2023-05-06T08:22:37.339Z,15.55
2023-05-06T08:27:33.800Z,15.73
2023-05-06T08:32:30.328Z,15.73
2023-05-06T08:37:26.948Z,15.55
2023-05-06T08:43:37.674Z,16.65
2023-05-06T08:53:30.587Z,15.75
2023-05-06T08:58:27.130Z,15.82
2023-05-06T09:04:37.894Z,15.76
2023-05-06T09:09:34.442Z,15.28
2023-05-06T09:14:30.821Z,15.68
2023-05-06T09:25:38.109Z,14.09
2023-05-06T09:30:34.639Z,13
2023-05-06T09:35:31.223Z,12.58
2023-05-06T09:40:27.710Z,13.43
2023-05-06T09:46:38.694Z,12.92
2023-05-06T09:51:34.950Z,12.18
2023-05-06T09:56:31.371Z,12.81
2023-05-06T10:01:36.013Z,10.67
2023-05-06T10:07:38.682Z,9.77
2023-05-06T10:12:36.722Z,9.96
2023-05-06T10:17:31.868Z,10.07
2023-05-06T10:22:28.311Z,10.45
2023-05-06T10:28:38.987Z,10.79
2023-05-06T10:33:35.576Z,10.48
2023-05-06T10:38:31.934Z,10.74
2023-05-06T10:43:28.580Z,10.43
2023-05-06T10:49:39.275Z,10.73
2023-05-06T10:54:35.781Z,10.69
2023-05-06T10:59:32.227Z,10.81
2023-05-06T11:04:28.769Z,10.04
2023-05-06T11:10:39.468Z,10.09
2023-05-06T11:15:35.948Z,10.95
2023-05-06T11:20:32.579Z,10.78
2023-05-06T11:25:29.028Z,10.18
2023-05-06T11:31:39.699Z,11.05
2023-05-06T11:36:36.420Z,10.96
2023-05-06T11:41:32.801Z,9.95
2023-05-06T11:46:29.360Z,11.01
2023-05-06T11:52:39.957Z,10.82
2023-05-06T11:57:36.495Z,11.34
2023-05-06T12:02:33.170Z,11.07
2023-05-06T12:07:29.567Z,10.27
2023-05-06T12:13:40.279Z,10.9
2023-05-06T12:18:36.785Z,10.95
2023-05-06T12:23:33.365Z,10.55
2023-05-06T12:28:29.954Z,10.36
2023-05-06T12:34:40.487Z,10.28
2023-05-06T12:39:37.044Z,9.54
2023-05-06T12:44:33.590Z,9.69
2023-05-06T12:49:30.239Z,9.69
2023-05-06T12:54:35.283Z,10.36
2023-05-06T12:59:31.476Z,10.44
2023-05-06T13:04:28.095Z,9.66
2023-05-06T13:10:38.525Z,9.46
2023-05-06T13:15:35.055Z,9.47
2023-05-06T13:20:31.800Z,10.08
2023-05-06T13:25:28.174Z,9.67
2023-05-06T13:31:38.800Z,10.05
2023-05-06T13:36:35.565Z,10.22
2023-05-06T13:41:31.924Z,10.04
2023-05-06T13:52:39.076Z,9.4
2023-05-06T13:57:35.622Z,9.48
2023-05-06T14:02:32.257Z,9.37
2023-05-06T14:07:28.749Z,9.26
2023-05-06T14:13:39.381Z,9.21
2023-05-06T14:18:35.994Z,9.41
2023-05-06T14:23:32.897Z,9.53
2023-05-06T14:28:28.974Z,12.92
2023-05-06T14:34:39.630Z,14.65
2023-05-06T14:39:36.209Z,14.21
2023-05-06T14:44:32.734Z,14.13
2023-05-06T14:49:29.203Z,14.3
2023-05-06T14:55:40.123Z,14.3
2023-05-06T15:00:36.543Z,14.21
2023-05-06T15:04:19.084Z,14.21
2023-05-06T15:05:33.029Z,14.21
2023-05-06T15:10:29.545Z,14.47
2023-05-06T15:15:26.071Z,14.56
2023-05-06T15:21:36.699Z,14.65
2023-05-06T15:26:33.214Z,15.09
2023-05-06T15:31:30.219Z,15.27
2023-05-06T15:37:40.540Z,15.55
2023-05-06T15:42:36.972Z,15.27
2023-05-06T15:47:33.689Z,15
2023-05-06T15:52:30.077Z,15.18
2023-05-06T15:58:40.677Z,15.27
2023-05-06T16:03:37.323Z,15.27
2023-05-06T16:08:33.840Z,15
2023-05-06T16:13:30.240Z,15.09
2023-05-06T16:18:28.951Z,14.82
2023-05-06T16:24:37.501Z,15.09
2023-05-06T16:29:34.057Z,15.09
2023-05-06T16:34:30.609Z,15
2023-05-06T16:39:27.143Z,15.18
2023-05-06T16:45:37.896Z,15.18
2023-05-06T16:50:34.357Z,15.09
2023-05-06T16:55:30.821Z,15.09
2023-05-06T17:00:28.460Z,15.09
2023-05-06T17:06:38.202Z,15.36
2023-05-06T17:11:34.689Z,15.09
2023-05-06T17:16:31.442Z,15
2023-05-06T17:21:27.642Z,14.56
2023-05-06T17:27:38.313Z,14.65
2023-05-06T17:32:34.845Z,14.91
2023-05-06T17:37:31.356Z,14.91
2023-05-06T17:42:28.016Z,15
2023-05-06T17:48:38.935Z,14.73
2023-05-06T17:53:35.363Z,14.82
2023-05-06T17:58:31.725Z,14.82
2023-05-06T18:03:28.217Z,14.91
2023-05-06T18:09:38.818Z,14.73
2023-05-06T18:14:35.465Z,14.65
2023-05-06T18:19:31.913Z,14.47
2023-05-06T18:24:28.585Z,14.47
2023-05-06T18:30:39.259Z,14.3
2023-05-06T18:35:35.631Z,14.21
2023-05-06T18:40:32.142Z,14.21
2023-05-06T18:45:28.936Z,14.04
2023-05-06T18:51:39.391Z,13.96
2023-05-06T18:56:35.961Z,13.96
2023-05-06T19:01:32.716Z,13.96
2023-05-06T19:06:28.983Z,13.96
2023-05-06T19:12:39.697Z,13.96
2023-05-06T19:17:36.237Z,13.96
2023-05-06T19:22:33.008Z,14.04
2023-05-06T19:27:29.488Z,13.96
2023-05-06T19:32:25.826Z,13.87
2023-05-06T19:33:39.917Z,13.79
2023-05-06T19:38:36.460Z,13.87
2023-05-06T19:43:33.046Z,13.87
2023-05-06T19:48:29.603Z,13.87
2023-05-06T19:54:40.193Z,13.96
2023-05-06T19:59:36.804Z,13.96
2023-05-06T20:04:33.287Z,13.87
2023-05-06T20:09:29.845Z,13.79
2023-05-06T20:15:40.401Z,13.87
2023-05-06T20:20:36.960Z,13.87
2023-05-06T20:25:33.643Z,13.63
2023-05-06T20:30:30.184Z,13.63
2023-05-06T20:35:26.768Z,13.54
2023-05-06T20:41:37.348Z,13.46
2023-05-06T20:46:33.765Z,13.22
2023-05-06T20:51:30.460Z,13.3
2023-05-06T20:56:26.896Z,13.14
2023-05-06T21:02:42.794Z,13.06
2023-05-06T21:07:34.217Z,12.98
2023-05-06T21:12:38.870Z,12.98
2023-05-06T21:17:35.409Z,12.9
2023-05-06T21:22:31.830Z,12.9
2023-05-06T21:27:28.374Z,13.06
2023-05-06T21:33:39.315Z,12.9
2023-05-06T21:38:35.521Z,12.82
2023-05-06T21:43:33.382Z,12.9
2023-05-06T21:48:28.645Z,12.98
2023-05-06T21:54:39.850Z,12.82
2023-05-06T21:59:36.012Z,12.67
2023-05-06T22:04:32.307Z,12.59
2023-05-06T22:09:28.895Z,12.59
2023-05-06T22:15:39.582Z,12.74
2023-05-06T22:20:36.135Z,12.67
2023-05-06T22:25:32.567Z,12.67
2023-05-06T22:30:29.127Z,12.74
2023-05-06T22:36:39.848Z,12.59
2023-05-06T22:41:36.376Z,12.59
2023-05-06T22:46:32.929Z,12.59
2023-05-06T22:51:29.481Z,12.59
2023-05-06T22:57:40.045Z,12.67
2023-05-06T23:02:36.697Z,12.59
2023-05-06T23:07:33.283Z,12.67
2023-05-06T23:12:29.712Z,12.44
2023-05-06T23:18:40.260Z,12.51
2023-05-06T23:23:36.904Z,12.51
2023-05-06T23:28:33.429Z,12.36
2023-05-06T23:33:29.944Z,12.51
2023-05-06T23:38:26.432Z,12.51
2023-05-06T23:44:37.103Z,12.51
2023-05-06T23:49:33.648Z,12.51
2023-05-06T23:54:30.183Z,12.67
2023-05-06T23:59:27.014Z,12.59
